sensor_id;sensor_type;location;lat;lon;timestamp;temperature;humidity
32706;DHT22;19094;50.972;3.538;2023-02-28T00:00:08;11.60;54.60
32706;DHT22;19094;50.972;3.538;2023-02-28T00:02:39;11.60;54.60
32706;DHT22;19094;50.972;3.538;2023-02-28T00:05:05;11.60;54.80
32706;DHT22;19094;50.972;3.538;2023-02-28T00:07:31;11.50;54.60
32706;DHT22;19094;50.972;3.538;2023-02-28T00:09:57;11.50;54.50
32706;DHT22;19094;50.972;3.538;2023-02-28T00:12:23;11.50;54.70
32706;DHT22;19094;50.972;3.538;2023-02-28T00:14:50;11.50;54.80
32706;DHT22;19094;50.972;3.538;2023-02-28T00:17:15;11.50;54.60
32706;DHT22;19094;50.972;3.538;2023-02-28T00:19:50;11.50;54.60
32706;DHT22;19094;50.972;3.538;2023-02-28T00:22:20;11.50;54.80
32706;DHT22;19094;50.972;3.538;2023-02-28T00:24:46;11.50;54.60
32706;DHT22;19094;50.972;3.538;2023-02-28T00:27:13;11.40;54.80
32706;DHT22;19094;50.972;3.538;2023-02-28T00:29:40;11.40;54.80
32706;DHT22;19094;50.972;3.538;2023-02-28T00:32:05;11.40;54.80
32706;DHT22;19094;50.972;3.538;2023-02-28T00:34:31;11.40;54.80
32706;DHT22;19094;50.972;3.538;2023-02-28T00:37:04;11.40;54.90
32706;DHT22;19094;50.972;3.538;2023-02-28T00:39:30;11.30;54.70
32706;DHT22;19094;50.972;3.538;2023-02-28T00:41:55;11.40;54.80
32706;DHT22;19094;50.972;3.538;2023-02-28T00:44:21;11.30;54.60
32706;DHT22;19094;50.972;3.538;2023-02-28T00:46:47;11.30;54.60
32706;DHT22;19094;50.972;3.538;2023-02-28T00:49:12;11.30;54.50
32706;DHT22;19094;50.972;3.538;2023-02-28T00:51:38;11.30;54.80
32706;DHT22;19094;50.972;3.538;2023-02-28T00:54:04;11.30;54.70
32706;DHT22;19094;50.972;3.538;2023-02-28T00:56:29;11.30;54.80
32706;DHT22;19094;50.972;3.538;2023-02-28T00:58:55;11.20;54.80
32706;DHT22;19094;50.972;3.538;2023-02-28T01:01:21;11.20;54.80
32706;DHT22;19094;50.972;3.538;2023-02-28T01:03:46;11.20;54.90
32706;DHT22;19094;50.972;3.538;2023-02-28T01:06:12;11.20;54.80
32706;DHT22;19094;50.972;3.538;2023-02-28T01:08:37;11.20;54.80
32706;DHT22;19094;50.972;3.538;2023-02-28T01:11:08;11.20;54.80
32706;DHT22;19094;50.972;3.538;2023-02-28T01:13:34;11.20;54.80
32706;DHT22;19094;50.972;3.538;2023-02-28T01:15:59;11.20;54.80
32706;DHT22;19094;50.972;3.538;2023-02-28T01:18:25;11.20;54.80
32706;DHT22;19094;50.972;3.538;2023-02-28T01:20:51;11.10;55.20
32706;DHT22;19094;50.972;3.538;2023-02-28T01:23:19;11.10;54.90
32706;DHT22;19094;50.972;3.538;2023-02-28T01:25:45;11.20;54.80
32706;DHT22;19094;50.972;3.538;2023-02-28T01:28:11;11.10;54.90
32706;DHT22;19094;50.972;3.538;2023-02-28T01:30:36;11.10;55.10
32706;DHT22;19094;50.972;3.538;2023-02-28T01:33:02;11.10;55.10
32706;DHT22;19094;50.972;3.538;2023-02-28T01:35:28;11.10;55.10
32706;DHT22;19094;50.972;3.538;2023-02-28T01:37:53;11.10;54.90
32706;DHT22;19094;50.972;3.538;2023-02-28T01:40:19;11.10;54.90
32706;DHT22;19094;50.972;3.538;2023-02-28T01:42:45;11.00;54.90
32706;DHT22;19094;50.972;3.538;2023-02-28T01:45:29;11.00;54.90
32706;DHT22;19094;50.972;3.538;2023-02-28T01:48:02;11.00;54.90
32706;DHT22;19094;50.972;3.538;2023-02-28T01:50:33;11.10;54.90
32706;DHT22;19094;50.972;3.538;2023-02-28T01:53:03;11.00;55.20
32706;DHT22;19094;50.972;3.538;2023-02-28T01:55:30;11.00;54.80
32706;DHT22;19094;50.972;3.538;2023-02-28T01:57:58;11.00;54.90
32706;DHT22;19094;50.972;3.538;2023-02-28T02:00:26;11.00;54.90
32706;DHT22;19094;50.972;3.538;2023-02-28T02:02:55;11.10;54.70
32706;DHT22;19094;50.972;3.538;2023-02-28T02:05:25;11.10;54.80
32706;DHT22;19094;50.972;3.538;2023-02-28T02:07:54;11.00;54.70
32706;DHT22;19094;50.972;3.538;2023-02-28T02:10:31;11.00;54.90
32706;DHT22;19094;50.972;3.538;2023-02-28T02:16:23;11.00;54.70
32706;DHT22;19094;50.972;3.538;2023-02-28T02:24:52;11.00;54.90
32706;DHT22;19094;50.972;3.538;2023-02-28T02:30:39;11.00;55.00
32706;DHT22;19094;50.972;3.538;2023-02-28T02:33:40;11.00;55.00
32706;DHT22;19094;50.972;3.538;2023-02-28T02:36:24;10.90;55.00
32706;DHT22;19094;50.972;3.538;2023-02-28T02:41:34;10.80;55.00
32706;DHT22;19094;50.972;3.538;2023-02-28T02:47:15;10.90;55.80
32706;DHT22;19094;50.972;3.538;2023-02-28T02:49:45;10.80;55.10
32706;DHT22;19094;50.972;3.538;2023-02-28T02:52:15;10.80;55.20
32706;DHT22;19094;50.972;3.538;2023-02-28T02:54:45;10.80;55.00
32706;DHT22;19094;50.972;3.538;2023-02-28T02:57:49;10.80;55.10
32706;DHT22;19094;50.972;3.538;2023-02-28T03:00:18;10.80;55.20
32706;DHT22;19094;50.972;3.538;2023-02-28T03:02:47;10.80;55.40
32706;DHT22;19094;50.972;3.538;2023-02-28T03:05:27;10.80;55.30
32706;DHT22;19094;50.972;3.538;2023-02-28T03:07:54;10.80;55.20
32706;DHT22;19094;50.972;3.538;2023-02-28T03:13:06;10.70;55.40
32706;DHT22;19094;50.972;3.538;2023-02-28T03:16:07;10.70;55.40
32706;DHT22;19094;50.972;3.538;2023-02-28T03:18:44;10.70;55.50
32706;DHT22;19094;50.972;3.538;2023-02-28T03:25:24;10.70;55.30
32706;DHT22;19094;50.972;3.538;2023-02-28T03:27:35;10.70;55.30
32706;DHT22;19094;50.972;3.538;2023-02-28T03:32:57;10.70;55.40
32706;DHT22;19094;50.972;3.538;2023-02-28T03:35:43;10.70;55.30
32706;DHT22;19094;50.972;3.538;2023-02-28T03:38:31;10.70;55.20
32706;DHT22;19094;50.972;3.538;2023-02-28T03:43:51;10.70;55.40
32706;DHT22;19094;50.972;3.538;2023-02-28T03:46:21;10.70;55.50
32706;DHT22;19094;50.972;3.538;2023-02-28T03:49:12;10.70;55.30
32706;DHT22;19094;50.972;3.538;2023-02-28T03:51:40;10.60;55.50
32706;DHT22;19094;50.972;3.538;2023-02-28T03:54:10;10.60;55.60
32706;DHT22;19094;50.972;3.538;2023-02-28T03:56:43;10.60;55.50
32706;DHT22;19094;50.972;3.538;2023-02-28T03:59:16;10.70;55.70
32706;DHT22;19094;50.972;3.538;2023-02-28T04:01:47;10.70;55.60
32706;DHT22;19094;50.972;3.538;2023-02-28T04:04:13;10.60;55.50
32706;DHT22;19094;50.972;3.538;2023-02-28T04:06:40;10.60;55.50
32706;DHT22;19094;50.972;3.538;2023-02-28T04:09:08;10.60;55.60
32706;DHT22;19094;50.972;3.538;2023-02-28T04:14:01;10.60;55.70
32706;DHT22;19094;50.972;3.538;2023-02-28T04:16:28;10.60;55.70
32706;DHT22;19094;50.972;3.538;2023-02-28T04:18:54;10.60;55.50
32706;DHT22;19094;50.972;3.538;2023-02-28T04:21:28;10.60;55.70
32706;DHT22;19094;50.972;3.538;2023-02-28T04:23:53;10.60;55.60
32706;DHT22;19094;50.972;3.538;2023-02-28T04:26:19;10.60;55.70
32706;DHT22;19094;50.972;3.538;2023-02-28T04:28:45;10.60;55.90
32706;DHT22;19094;50.972;3.538;2023-02-28T04:31:10;10.60;55.60
32706;DHT22;19094;50.972;3.538;2023-02-28T04:33:36;10.50;55.70
32706;DHT22;19094;50.972;3.538;2023-02-28T04:36:06;10.50;55.90
32706;DHT22;19094;50.972;3.538;2023-02-28T04:38:38;10.60;55.80
32706;DHT22;19094;50.972;3.538;2023-02-28T04:41:05;10.50;55.90
32706;DHT22;19094;50.972;3.538;2023-02-28T04:43:31;10.60;55.90
32706;DHT22;19094;50.972;3.538;2023-02-28T04:45:59;10.50;55.80
32706;DHT22;19094;50.972;3.538;2023-02-28T04:48:27;10.50;56.00
32706;DHT22;19094;50.972;3.538;2023-02-28T04:50:53;10.50;56.00
32706;DHT22;19094;50.972;3.538;2023-02-28T04:53:19;10.50;55.90
32706;DHT22;19094;50.972;3.538;2023-02-28T04:55:45;10.50;55.80
32706;DHT22;19094;50.972;3.538;2023-02-28T04:58:12;10.50;55.80
32706;DHT22;19094;50.972;3.538;2023-02-28T05:00:38;10.50;56.00
32706;DHT22;19094;50.972;3.538;2023-02-28T05:03:04;10.50;56.00
32706;DHT22;19094;50.972;3.538;2023-02-28T05:05:29;10.50;56.20
32706;DHT22;19094;50.972;3.538;2023-02-28T05:07:55;10.50;56.10
32706;DHT22;19094;50.972;3.538;2023-02-28T05:10:22;10.50;56.00
32706;DHT22;19094;50.972;3.538;2023-02-28T05:12:48;10.50;56.00
32706;DHT22;19094;50.972;3.538;2023-02-28T05:15:15;10.50;56.00
32706;DHT22;19094;50.972;3.538;2023-02-28T05:17:41;10.50;56.10
32706;DHT22;19094;50.972;3.538;2023-02-28T05:20:08;10.50;55.90
32706;DHT22;19094;50.972;3.538;2023-02-28T05:22:36;10.50;56.00
32706;DHT22;19094;50.972;3.538;2023-02-28T05:25:03;10.60;56.00
32706;DHT22;19094;50.972;3.538;2023-02-28T05:27:30;10.50;56.10
32706;DHT22;19094;50.972;3.538;2023-02-28T05:29:56;10.50;56.10
32706;DHT22;19094;50.972;3.538;2023-02-28T05:32:22;10.60;56.10
32706;DHT22;19094;50.972;3.538;2023-02-28T05:34:47;10.50;56.10
32706;DHT22;19094;50.972;3.538;2023-02-28T05:37:14;10.50;56.20
32706;DHT22;19094;50.972;3.538;2023-02-28T05:39:41;10.50;56.00
32706;DHT22;19094;50.972;3.538;2023-02-28T05:42:07;10.50;56.10
32706;DHT22;19094;50.972;3.538;2023-02-28T05:44:33;10.50;56.10
32706;DHT22;19094;50.972;3.538;2023-02-28T05:46:59;10.50;56.20
32706;DHT22;19094;50.972;3.538;2023-02-28T05:49:24;10.60;56.30
32706;DHT22;19094;50.972;3.538;2023-02-28T05:51:50;10.50;56.00
32706;DHT22;19094;50.972;3.538;2023-02-28T05:54:16;10.50;56.10
32706;DHT22;19094;50.972;3.538;2023-02-28T05:56:41;10.50;56.20
32706;DHT22;19094;50.972;3.538;2023-02-28T05:59:11;10.50;56.30
32706;DHT22;19094;50.972;3.538;2023-02-28T06:01:38;10.50;56.10
32706;DHT22;19094;50.972;3.538;2023-02-28T06:04:07;10.50;56.20
32706;DHT22;19094;50.972;3.538;2023-02-28T06:06:33;10.50;56.10
32706;DHT22;19094;50.972;3.538;2023-02-28T06:09:03;10.50;56.40
32706;DHT22;19094;50.972;3.538;2023-02-28T06:11:29;10.60;56.10
32706;DHT22;19094;50.972;3.538;2023-02-28T06:13:56;10.60;56.20
32706;DHT22;19094;50.972;3.538;2023-02-28T06:16:23;10.60;56.10
32706;DHT22;19094;50.972;3.538;2023-02-28T06:18:49;10.60;56.10
32706;DHT22;19094;50.972;3.538;2023-02-28T06:21:15;10.60;56.20
32706;DHT22;19094;50.972;3.538;2023-02-28T06:23:40;10.60;56.10
32706;DHT22;19094;50.972;3.538;2023-02-28T06:26:06;10.60;56.10
32706;DHT22;19094;50.972;3.538;2023-02-28T06:28:32;10.60;56.10
32706;DHT22;19094;50.972;3.538;2023-02-28T06:30:57;10.60;56.00
32706;DHT22;19094;50.972;3.538;2023-02-28T06:33:23;10.60;56.10
32706;DHT22;19094;50.972;3.538;2023-02-28T06:35:52;10.60;56.20
32706;DHT22;19094;50.972;3.538;2023-02-28T06:38:18;10.60;56.10
32706;DHT22;19094;50.972;3.538;2023-02-28T06:40:44;10.70;56.20
32706;DHT22;19094;50.972;3.538;2023-02-28T06:43:16;10.60;56.10
32706;DHT22;19094;50.972;3.538;2023-02-28T06:45:43;10.70;56.20
32706;DHT22;19094;50.972;3.538;2023-02-28T06:48:09;10.60;56.10
32706;DHT22;19094;50.972;3.538;2023-02-28T06:50:36;10.60;56.00
32706;DHT22;19094;50.972;3.538;2023-02-28T06:53:01;10.70;55.90
32706;DHT22;19094;50.972;3.538;2023-02-28T06:55:27;10.70;56.10
32706;DHT22;19094;50.972;3.538;2023-02-28T06:57:52;10.70;56.00
32706;DHT22;19094;50.972;3.538;2023-02-28T07:00:20;10.70;56.20
32706;DHT22;19094;50.972;3.538;2023-02-28T07:02:46;10.70;56.00
32706;DHT22;19094;50.972;3.538;2023-02-28T07:05:13;10.70;56.00
32706;DHT22;19094;50.972;3.538;2023-02-28T07:07:39;10.70;56.20
32706;DHT22;19094;50.972;3.538;2023-02-28T07:10:10;10.70;56.20
32706;DHT22;19094;50.972;3.538;2023-02-28T07:12:36;10.70;56.20
32706;DHT22;19094;50.972;3.538;2023-02-28T07:15:03;10.70;56.30
32706;DHT22;19094;50.972;3.538;2023-02-28T07:17:29;10.70;56.40
32706;DHT22;19094;50.972;3.538;2023-02-28T07:19:56;10.70;56.50
32706;DHT22;19094;50.972;3.538;2023-02-28T07:22:22;10.80;56.30
32706;DHT22;19094;50.972;3.538;2023-02-28T07:24:47;10.80;56.30
32706;DHT22;19094;50.972;3.538;2023-02-28T07:27:13;10.70;56.20
32706;DHT22;19094;50.972;3.538;2023-02-28T07:29:49;10.70;56.40
32706;DHT22;19094;50.972;3.538;2023-02-28T07:32:15;10.70;56.40
32706;DHT22;19094;50.972;3.538;2023-02-28T07:34:41;10.70;56.40
32706;DHT22;19094;50.972;3.538;2023-02-28T07:37:06;10.80;56.20
32706;DHT22;19094;50.972;3.538;2023-02-28T07:39:32;10.80;56.40
32706;DHT22;19094;50.972;3.538;2023-02-28T07:41:57;10.80;56.30
32706;DHT22;19094;50.972;3.538;2023-02-28T07:44:25;10.80;56.20
32706;DHT22;19094;50.972;3.538;2023-02-28T07:46:51;10.80;56.40
32706;DHT22;19094;50.972;3.538;2023-02-28T07:49:18;10.90;56.40
32706;DHT22;19094;50.972;3.538;2023-02-28T07:51:44;11.00;56.80
32706;DHT22;19094;50.972;3.538;2023-02-28T07:54:09;10.90;55.80
32706;DHT22;19094;50.972;3.538;2023-02-28T07:56:35;11.00;56.30
32706;DHT22;19094;50.972;3.538;2023-02-28T07:59:01;11.00;56.10
32706;DHT22;19094;50.972;3.538;2023-02-28T08:01:27;11.00;56.00
32706;DHT22;19094;50.972;3.538;2023-02-28T08:03:53;11.00;56.20
32706;DHT22;19094;50.972;3.538;2023-02-28T08:06:22;11.00;56.20
32706;DHT22;19094;50.972;3.538;2023-02-28T08:08:48;11.10;56.40
32706;DHT22;19094;50.972;3.538;2023-02-28T08:11:14;11.00;56.00
32706;DHT22;19094;50.972;3.538;2023-02-28T08:13:40;11.10;56.00
32706;DHT22;19094;50.972;3.538;2023-02-28T08:16:07;11.00;56.00
32706;DHT22;19094;50.972;3.538;2023-02-28T08:18:33;11.10;56.00
32706;DHT22;19094;50.972;3.538;2023-02-28T08:20:59;11.00;55.80
32706;DHT22;19094;50.972;3.538;2023-02-28T08:23:25;11.00;56.10
32706;DHT22;19094;50.972;3.538;2023-02-28T08:25:55;11.10;56.30
32706;DHT22;19094;50.972;3.538;2023-02-28T08:28:21;11.20;56.00
32706;DHT22;19094;50.972;3.538;2023-02-28T08:30:47;11.10;56.00
32706;DHT22;19094;50.972;3.538;2023-02-28T08:33:12;11.20;56.50
32706;DHT22;19094;50.972;3.538;2023-02-28T08:35:38;11.20;56.20
32706;DHT22;19094;50.972;3.538;2023-02-28T08:38:04;11.10;55.70
32706;DHT22;19094;50.972;3.538;2023-02-28T08:40:29;11.20;55.80
32706;DHT22;19094;50.972;3.538;2023-02-28T08:42:55;11.20;56.10
32706;DHT22;19094;50.972;3.538;2023-02-28T08:45:21;11.20;55.90
32706;DHT22;19094;50.972;3.538;2023-02-28T08:47:48;11.20;56.50
32706;DHT22;19094;50.972;3.538;2023-02-28T08:50:14;11.20;56.30
32706;DHT22;19094;50.972;3.538;2023-02-28T08:52:42;11.30;55.80
32706;DHT22;19094;50.972;3.538;2023-02-28T08:55:09;11.30;56.10
32706;DHT22;19094;50.972;3.538;2023-02-28T08:57:35;11.30;56.60
32706;DHT22;19094;50.972;3.538;2023-02-28T09:00:01;11.30;56.40
32706;DHT22;19094;50.972;3.538;2023-02-28T09:02:30;11.30;56.10
32706;DHT22;19094;50.972;3.538;2023-02-28T09:04:57;11.40;56.40
32706;DHT22;19094;50.972;3.538;2023-02-28T09:07:24;11.30;56.20
32706;DHT22;19094;50.972;3.538;2023-02-28T09:09:50;11.40;56.70
32706;DHT22;19094;50.972;3.538;2023-02-28T09:12:27;11.30;56.10
32706;DHT22;19094;50.972;3.538;2023-02-28T09:14:53;11.30;56.40
32706;DHT22;19094;50.972;3.538;2023-02-28T09:17:19;11.30;56.00
32706;DHT22;19094;50.972;3.538;2023-02-28T09:19:44;11.30;56.20
32706;DHT22;19094;50.972;3.538;2023-02-28T09:22:11;11.30;56.50
32706;DHT22;19094;50.972;3.538;2023-02-28T09:24:37;11.40;56.30
32706;DHT22;19094;50.972;3.538;2023-02-28T09:27:03;11.30;56.20
32706;DHT22;19094;50.972;3.538;2023-02-28T09:29:33;11.30;55.40
32706;DHT22;19094;50.972;3.538;2023-02-28T09:31:59;11.20;55.50
32706;DHT22;19094;50.972;3.538;2023-02-28T09:34:28;11.30;56.60
32706;DHT22;19094;50.972;3.538;2023-02-28T09:36:56;11.30;55.30
32706;DHT22;19094;50.972;3.538;2023-02-28T09:39:22;11.20;55.20
32706;DHT22;19094;50.972;3.538;2023-02-28T09:41:53;11.30;56.10
32706;DHT22;19094;50.972;3.538;2023-02-28T09:44:25;11.30;55.50
32706;DHT22;19094;50.972;3.538;2023-02-28T09:47:10;11.40;56.00
32706;DHT22;19094;50.972;3.538;2023-02-28T09:49:41;11.20;55.50
32706;DHT22;19094;50.972;3.538;2023-02-28T09:52:17;11.30;55.60
32706;DHT22;19094;50.972;3.538;2023-02-28T09:54:46;11.30;55.70
32706;DHT22;19094;50.972;3.538;2023-02-28T09:57:27;11.30;56.00
32706;DHT22;19094;50.972;3.538;2023-02-28T10:03:39;11.40;56.10
32706;DHT22;19094;50.972;3.538;2023-02-28T10:05:54;11.40;55.90
32706;DHT22;19094;50.972;3.538;2023-02-28T10:11:14;11.30;54.70
32706;DHT22;19094;50.972;3.538;2023-02-28T10:14:06;11.20;55.30
32706;DHT22;19094;50.972;3.538;2023-02-28T10:16:39;11.30;55.50
32706;DHT22;19094;50.972;3.538;2023-02-28T10:19:15;11.30;55.80
32706;DHT22;19094;50.972;3.538;2023-02-28T10:24:44;11.40;55.80
32706;DHT22;19094;50.972;3.538;2023-02-28T10:27:22;11.40;55.50
32706;DHT22;19094;50.972;3.538;2023-02-28T10:29:53;11.30;54.90
32706;DHT22;19094;50.972;3.538;2023-02-28T10:32:39;11.40;56.00
32706;DHT22;19094;50.972;3.538;2023-02-28T10:35:17;11.40;55.80
32706;DHT22;19094;50.972;3.538;2023-02-28T10:37:55;11.40;55.90
32706;DHT22;19094;50.972;3.538;2023-02-28T10:43:03;11.40;55.30
32706;DHT22;19094;50.972;3.538;2023-02-28T10:45:32;11.50;55.90
32706;DHT22;19094;50.972;3.538;2023-02-28T10:48:24;11.50;55.60
32706;DHT22;19094;50.972;3.538;2023-02-28T10:50:52;11.50;56.00
32706;DHT22;19094;50.972;3.538;2023-02-28T10:58:56;11.60;55.10
32706;DHT22;19094;50.972;3.538;2023-02-28T11:01:36;11.60;56.00
32706;DHT22;19094;50.972;3.538;2023-02-28T11:04:03;11.60;55.90
32706;DHT22;19094;50.972;3.538;2023-02-28T11:06:33;11.70;55.70
32706;DHT22;19094;50.972;3.538;2023-02-28T11:09:28;11.70;55.90
32706;DHT22;19094;50.972;3.538;2023-02-28T11:14:52;11.70;55.30
32706;DHT22;19094;50.972;3.538;2023-02-28T11:17:29;11.70;55.10
32706;DHT22;19094;50.972;3.538;2023-02-28T11:19:58;11.70;54.50
32706;DHT22;19094;50.972;3.538;2023-02-28T11:22:27;11.70;54.50
32706;DHT22;19094;50.972;3.538;2023-02-28T11:24:59;11.80;54.90
32706;DHT22;19094;50.972;3.538;2023-02-28T11:29:55;11.90;53.30
32706;DHT22;19094;50.972;3.538;2023-02-28T11:32:23;11.90;52.00
32706;DHT22;19094;50.972;3.538;2023-02-28T11:37:38;12.20;52.30
32706;DHT22;19094;50.972;3.538;2023-02-28T11:40:23;12.30;53.00
32706;DHT22;19094;50.972;3.538;2023-02-28T11:46:29;12.70;52.40
32706;DHT22;19094;50.972;3.538;2023-02-28T11:48:36;12.90;51.30
32706;DHT22;19094;50.972;3.538;2023-02-28T11:56:58;13.90;49.80
32706;DHT22;19094;50.972;3.538;2023-02-28T12:02:28;14.30;49.40
32706;DHT22;19094;50.972;3.538;2023-02-28T12:05:17;14.60;46.70
32706;DHT22;19094;50.972;3.538;2023-02-28T12:14:26;15.00;48.50
32706;DHT22;19094;50.972;3.538;2023-02-28T12:27:21;15.60;46.90
32706;DHT22;19094;50.972;3.538;2023-02-28T12:32:42;15.80;46.80
32706;DHT22;19094;50.972;3.538;2023-02-28T12:40:31;16.20;43.70
32706;DHT22;19094;50.972;3.538;2023-02-28T12:43:07;16.50;41.90
32706;DHT22;19094;50.972;3.538;2023-02-28T12:45:57;16.70;43.70
32706;DHT22;19094;50.972;3.538;2023-02-28T12:51:07;16.90;42.20
32706;DHT22;19094;50.972;3.538;2023-02-28T12:57:02;17.20;43.90
32706;DHT22;19094;50.972;3.538;2023-02-28T13:05:24;17.80;43.00
32706;DHT22;19094;50.972;3.538;2023-02-28T13:10:45;17.80;43.40
32706;DHT22;19094;50.972;3.538;2023-02-28T13:13:21;17.90;41.60
32706;DHT22;19094;50.972;3.538;2023-02-28T13:16:02;18.10;41.20
32706;DHT22;19094;50.972;3.538;2023-02-28T13:18:41;18.40;39.20
32706;DHT22;19094;50.972;3.538;2023-02-28T13:21:24;18.40;41.70
32706;DHT22;19094;50.972;3.538;2023-02-28T13:26:21;18.40;41.60
32706;DHT22;19094;50.972;3.538;2023-02-28T13:31:24;18.60;42.00
32706;DHT22;19094;50.972;3.538;2023-02-28T13:36:31;18.90;41.20
32706;DHT22;19094;50.972;3.538;2023-02-28T13:39:02;18.90;41.30
32706;DHT22;19094;50.972;3.538;2023-02-28T13:44:20;19.30;37.80
32706;DHT22;19094;50.972;3.538;2023-02-28T13:57:42;19.80;39.70
32706;DHT22;19094;50.972;3.538;2023-02-28T14:05:34;19.80;36.50
32706;DHT22;19094;50.972;3.538;2023-02-28T14:08:06;19.90;35.80
32706;DHT22;19094;50.972;3.538;2023-02-28T14:10:46;20.00;35.60
32706;DHT22;19094;50.972;3.538;2023-02-28T14:13:43;19.90;38.40
32706;DHT22;19094;50.972;3.538;2023-02-28T14:16:20;19.90;36.60
32706;DHT22;19094;50.972;3.538;2023-02-28T14:19:00;19.90;37.50
32706;DHT22;19094;50.972;3.538;2023-02-28T14:21:34;19.90;38.30
32706;DHT22;19094;50.972;3.538;2023-02-28T14:38:18;20.10;39.40
32706;DHT22;19094;50.972;3.538;2023-02-28T14:40:48;20.00;39.70
32706;DHT22;19094;50.972;3.538;2023-02-28T14:43:24;20.20;37.50
32706;DHT22;19094;50.972;3.538;2023-02-28T14:45:59;20.30;38.70
32706;DHT22;19094;50.972;3.538;2023-02-28T14:48:26;20.20;37.30
32706;DHT22;19094;50.972;3.538;2023-02-28T14:51:01;20.20;33.80
32706;DHT22;19094;50.972;3.538;2023-02-28T14:53:36;20.40;38.00
32706;DHT22;19094;50.972;3.538;2023-02-28T14:56:02;20.10;38.90
32706;DHT22;19094;50.972;3.538;2023-02-28T14:58:31;20.10;38.60
32706;DHT22;19094;50.972;3.538;2023-02-28T15:01:03;20.10;37.30
32706;DHT22;19094;50.972;3.538;2023-02-28T15:03:39;20.20;38.60
32706;DHT22;19094;50.972;3.538;2023-02-28T15:06:14;20.30;35.90
32706;DHT22;19094;50.972;3.538;2023-02-28T15:08:40;20.00;39.40
32706;DHT22;19094;50.972;3.538;2023-02-28T15:11:16;19.80;39.80
32706;DHT22;19094;50.972;3.538;2023-02-28T15:13:46;19.70;40.20
32706;DHT22;19094;50.972;3.538;2023-02-28T15:16:26;19.80;40.10
32706;DHT22;19094;50.972;3.538;2023-02-28T15:18:59;19.80;40.10
32706;DHT22;19094;50.972;3.538;2023-02-28T15:21:35;19.90;40.00
32706;DHT22;19094;50.972;3.538;2023-02-28T15:26:38;19.80;40.50
32706;DHT22;19094;50.972;3.538;2023-02-28T15:29:15;19.90;40.40
32706;DHT22;19094;50.972;3.538;2023-02-28T15:32:00;19.90;40.20
32706;DHT22;19094;50.972;3.538;2023-02-28T15:34:43;19.90;39.30
32706;DHT22;19094;50.972;3.538;2023-02-28T15:39:58;20.00;39.10
32706;DHT22;19094;50.972;3.538;2023-02-28T15:42:28;20.10;39.40
32706;DHT22;19094;50.972;3.538;2023-02-28T15:44:54;20.00;38.00
32706;DHT22;19094;50.972;3.538;2023-02-28T15:47:26;20.10;39.00
32706;DHT22;19094;50.972;3.538;2023-02-28T15:49:54;20.00;39.80
32706;DHT22;19094;50.972;3.538;2023-02-28T15:52:34;20.00;39.70
32706;DHT22;19094;50.972;3.538;2023-02-28T15:55:25;20.00;39.10
32706;DHT22;19094;50.972;3.538;2023-02-28T15:57:54;20.10;37.70
32706;DHT22;19094;50.972;3.538;2023-02-28T16:00:25;20.10;36.80
32706;DHT22;19094;50.972;3.538;2023-02-28T16:02:51;20.10;37.00
32706;DHT22;19094;50.972;3.538;2023-02-28T16:05:30;20.00;38.00
32706;DHT22;19094;50.972;3.538;2023-02-28T16:08:08;19.90;39.10
32706;DHT22;19094;50.972;3.538;2023-02-28T16:10:36;19.80;37.70
32706;DHT22;19094;50.972;3.538;2023-02-28T16:13:02;19.80;36.30
32706;DHT22;19094;50.972;3.538;2023-02-28T16:15:30;19.70;39.90
32706;DHT22;19094;50.972;3.538;2023-02-28T16:17:58;19.60;36.30
32706;DHT22;19094;50.972;3.538;2023-02-28T16:20:29;19.60;39.30
32706;DHT22;19094;50.972;3.538;2023-02-28T16:22:56;19.40;38.70
32706;DHT22;19094;50.972;3.538;2023-02-28T16:25:39;19.30;40.50
32706;DHT22;19094;50.972;3.538;2023-02-28T16:28:15;18.90;39.70
32706;DHT22;19094;50.972;3.538;2023-02-28T16:30:43;18.70;38.50
32706;DHT22;19094;50.972;3.538;2023-02-28T16:33:09;18.40;40.30
32706;DHT22;19094;50.972;3.538;2023-02-28T16:35:35;18.20;39.60
32706;DHT22;19094;50.972;3.538;2023-02-28T16:38:00;17.90;40.10
32706;DHT22;19094;50.972;3.538;2023-02-28T16:40:26;17.70;41.20
32706;DHT22;19094;50.972;3.538;2023-02-28T16:42:57;17.40;42.60
32706;DHT22;19094;50.972;3.538;2023-02-28T16:45:26;17.20;43.80
32706;DHT22;19094;50.972;3.538;2023-02-28T16:47:53;17.00;43.50
32706;DHT22;19094;50.972;3.538;2023-02-28T16:50:23;16.80;45.90
32706;DHT22;19094;50.972;3.538;2023-02-28T16:52:49;16.60;46.60
32706;DHT22;19094;50.972;3.538;2023-02-28T16:55:18;16.40;46.20
32706;DHT22;19094;50.972;3.538;2023-02-28T16:57:44;16.20;46.10
32706;DHT22;19094;50.972;3.538;2023-02-28T17:00:13;16.10;47.50
32706;DHT22;19094;50.972;3.538;2023-02-28T17:02:39;16.00;48.20
32706;DHT22;19094;50.972;3.538;2023-02-28T17:05:05;15.90;48.20
32706;DHT22;19094;50.972;3.538;2023-02-28T17:07:32;15.60;48.00
32706;DHT22;19094;50.972;3.538;2023-02-28T17:09:58;15.50;48.60
32706;DHT22;19094;50.972;3.538;2023-02-28T17:12:24;15.50;48.90
32706;DHT22;19094;50.972;3.538;2023-02-28T17:14:51;15.40;48.60
32706;DHT22;19094;50.972;3.538;2023-02-28T17:17:20;15.30;48.70
32706;DHT22;19094;50.972;3.538;2023-02-28T17:19:46;15.30;48.70
32706;DHT22;19094;50.972;3.538;2023-02-28T17:22:12;15.20;48.10
32706;DHT22;19094;50.972;3.538;2023-02-28T17:24:38;15.10;47.80
32706;DHT22;19094;50.972;3.538;2023-02-28T17:27:04;15.10;46.30
32706;DHT22;19094;50.972;3.538;2023-02-28T17:29:29;15.00;47.10
32706;DHT22;19094;50.972;3.538;2023-02-28T17:31:55;14.90;46.20
32706;DHT22;19094;50.972;3.538;2023-02-28T17:34:21;14.90;47.20
32706;DHT22;19094;50.972;3.538;2023-02-28T17:36:49;14.80;47.40
32706;DHT22;19094;50.972;3.538;2023-02-28T17:39:18;14.80;47.80
32706;DHT22;19094;50.972;3.538;2023-02-28T17:41:53;14.80;47.00
32706;DHT22;19094;50.972;3.538;2023-02-28T17:44:19;14.70;46.40
32706;DHT22;19094;50.972;3.538;2023-02-28T17:46:45;14.70;46.70
32706;DHT22;19094;50.972;3.538;2023-02-28T17:49:12;14.60;47.00
32706;DHT22;19094;50.972;3.538;2023-02-28T17:51:38;14.60;48.70
32706;DHT22;19094;50.972;3.538;2023-02-28T17:54:04;14.60;48.10
32706;DHT22;19094;50.972;3.538;2023-02-28T17:56:31;14.50;46.70
32706;DHT22;19094;50.972;3.538;2023-02-28T17:58:57;14.50;47.80
32706;DHT22;19094;50.972;3.538;2023-02-28T18:01:23;14.50;46.80
32706;DHT22;19094;50.972;3.538;2023-02-28T18:03:51;14.40;48.10
32706;DHT22;19094;50.972;3.538;2023-02-28T18:06:38;14.20;48.30
32706;DHT22;19094;50.972;3.538;2023-02-28T18:09:13;14.30;46.60
32706;DHT22;19094;50.972;3.538;2023-02-28T18:11:38;14.20;46.00
32706;DHT22;19094;50.972;3.538;2023-02-28T18:14:09;14.10;45.10
32706;DHT22;19094;50.972;3.538;2023-02-28T18:16:34;14.10;45.30
32706;DHT22;19094;50.972;3.538;2023-02-28T18:19:00;14.00;45.80
32706;DHT22;19094;50.972;3.538;2023-02-28T18:21:28;14.00;47.50